Time;durP1;ratioP1;P1;durP2;ratioP2;P2;SDS_P1;SDS_P2;PMS_P1;PMS_P2;Temp;Humidity;BMP_temperature;BMP_pressure;BME280_temperature;BME280_humidity;BME280_pressure;Samples;Min_cycle;Max_cycle;Signal;HPM_P1;HPM_P2
2022/11/21 00:02:39;;;;;;;0.50;0.50;;;13.00;78.00;;;;;;5058802;28;20562;-66
2022/11/21 00:05:27;;;;;;;0.40;0.40;;;13.00;78.70;;;;;;5057243;28;20300;-67
2022/11/21 00:08:17;;;;;;;0.40;0.40;;;13.10;79.30;;;;;;5056564;28;20507;-66
2022/11/21 00:11:05;;;;;;;0.50;0.50;;;13.20;79.10;;;;;;5054556;28;20432;-67
2022/11/21 00:13:55;;;;;;;2.70;2.60;;;13.40;78.80;;;;;;5055282;28;20578;-68
2022/11/21 00:16:44;;;;;;;0.50;0.50;;;13.60;78.60;;;;;;5055554;28;20707;-70
2022/11/21 00:19:33;;;;;;;0.60;0.60;;;13.70;78.40;;;;;;5054722;28;20581;-66
2022/11/21 00:22:21;;;;;;;0.40;0.40;;;13.80;78.10;;;;;;5054333;28;20455;-66
2022/11/21 00:25:09;;;;;;;0.40;0.40;;;13.90;77.80;;;;;;5055066;28;20300;-67
2022/11/21 00:27:57;;;;;;;0.40;0.40;;;13.80;77.50;;;;;;5054610;28;20717;-67
2022/11/21 00:30:47;;;;;;;0.40;0.40;;;14.00;77.60;;;;;;5054665;28;20283;-66
2022/11/21 00:33:36;;;;;;;2.40;1.90;;;14.10;77.20;;;;;;5054661;28;20280;-68
2022/11/21 00:36:24;;;;;;;2.00;1.90;;;14.10;77.80;;;;;;5053035;28;20193;-66
2022/11/21 00:39:12;;;;;;;0.40;0.40;;;14.10;77.00;;;;;;5052440;28;20620;-64
2022/11/21 00:42:00;;;;;;;0.40;0.40;;;14.10;76.50;;;;;;5052865;28;20283;-65
2022/11/21 00:44:48;;;;;;;0.80;0.80;;;14.20;76.10;;;;;;5052377;28;20296;-65
2022/11/21 00:47:37;;;;;;;0.40;0.40;;;14.00;75.30;;;;;;5051677;28;20700;-73
2022/11/21 00:50:25;;;;;;;0.40;0.40;;;13.90;75.90;;;;;;5055122;28;20650;-68
2022/11/21 00:53:13;;;;;;;0.40;0.40;;;13.90;76.30;;;;;;5055679;28;20502;-68
2022/11/21 00:56:01;;;;;;;0.40;0.40;;;13.90;75.90;;;;;;5055142;28;20231;-68
2022/11/21 00:58:49;;;;;;;0.40;0.40;;;13.90;76.30;;;;;;5055107;28;20233;-67
2022/11/21 01:01:37;;;;;;;0.40;0.40;;;13.80;76.10;;;;;;5055599;28;20765;-69
2022/11/21 01:04:30;;;;;;;0.40;0.40;;;13.80;76.50;;;;;;5054771;28;20221;-70
2022/11/21 01:07:18;;;;;;;0.40;0.40;;;13.70;76.30;;;;;;5054687;28;20695;-68
2022/11/21 01:10:07;;;;;;;0.40;0.40;;;13.60;76.30;;;;;;5054822;28;20229;-67
2022/11/21 01:12:55;;;;;;;0.40;0.40;;;13.60;76.70;;;;;;5055261;28;20284;-66
2022/11/21 01:15:43;;;;;;;0.40;0.40;;;13.40;75.70;;;;;;5055134;28;20294;-66
2022/11/21 01:18:31;;;;;;;0.40;0.40;;;13.40;76.40;;;;;;5054157;28;20644;-67
2022/11/21 01:21:23;;;;;;;1.33;1.33;;;13.40;76.70;;;;;;5054844;28;20339;-66
2022/11/21 01:24:12;;;;;;;2.73;1.40;;;13.20;76.50;;;;;;5054394;28;20302;-66
2022/11/21 01:27:00;;;;;;;0.40;0.40;;;13.30;76.90;;;;;;5054670;28;20229;-66
2022/11/21 01:29:48;;;;;;;0.60;0.60;;;13.30;76.90;;;;;;5054467;28;20237;-66
2022/11/21 01:32:36;;;;;;;0.40;0.40;;;13.20;77.40;;;;;;5055329;28;20959;-69
2022/11/21 01:35:24;;;;;;;0.40;0.40;;;13.20;77.60;;;;;;5060720;28;20264;-67
2022/11/21 01:38:14;;;;;;;0.50;0.50;;;11.40;75.80;;;;;;5061560;28;20273;-69
2022/11/21 01:41:02;;;;;;;0.40;0.40;;;13.10;77.40;;;;;;5058442;28;20686;-67
2022/11/21 01:43:50;;;;;;;2.40;2.30;;;;;;;;;;5060567;28;20802;-67
2022/11/21 01:46:38;;;;;;;0.50;0.50;;;13.20;78.20;;;;;;5060027;28;20535;-66
2022/11/21 01:49:30;;;;;;;0.40;0.40;;;13.60;78.10;;;;;;5060177;28;20871;-69
2022/11/21 01:52:24;;;;;;;1.73;1.57;;;13.60;78.70;;;;;;5061170;28;20248;-66
2022/11/21 01:55:14;;;;;;;1.67;1.57;;;13.70;78.10;;;;;;5061092;28;20478;-65
2022/11/21 01:58:03;;;;;;;0.40;0.40;;;;;;;;;;5060964;28;20448;-67
2022/11/21 02:00:52;;;;;;;0.63;0.63;;;14.00;77.00;;;;;;5060349;28;20459;-69
2022/11/21 02:03:42;;;;;;;0.40;0.40;;;14.20;77.60;;;;;;5059628;28;20212;-67
2022/11/21 02:06:31;;;;;;;0.40;0.40;;;14.30;77.20;;;;;;5058428;28;20307;-65
2022/11/21 02:09:21;;;;;;;0.50;0.50;;;14.20;77.00;;;;;;5057071;28;20197;-67
2022/11/21 02:12:15;;;;;;;0.40;0.40;;;14.30;76.70;;;;;;5057640;28;20684;-68
2022/11/21 02:15:04;;;;;;;0.40;0.40;;;14.30;76.50;;;;;;5056722;28;20201;-69
2022/11/21 02:17:52;;;;;;;0.40;0.40;;;14.30;76.30;;;;;;5055882;28;20227;-68
2022/11/21 02:20:45;;;;;;;0.40;0.40;;;14.30;75.80;;;;;;5054413;28;20284;-67
2022/11/21 02:23:41;;;;;;;0.40;0.40;;;14.20;75.50;;;;;;5054557;28;20280;-67
2022/11/21 02:26:31;;;;;;;0.40;0.40;;;14.10;75.40;;;;;;5054837;28;20306;-68
2022/11/21 02:29:19;;;;;;;0.40;0.40;;;14.10;75.30;;;;;;5054157;28;20233;-67
2022/11/21 02:32:07;;;;;;;0.60;0.60;;;14.00;75.90;;;;;;5054378;28;20369;-68
2022/11/21 02:34:55;;;;;;;0.40;0.40;;;14.00;75.30;;;;;;5054024;28;20280;-67
2022/11/21 02:37:45;;;;;;;0.40;0.40;;;14.10;76.00;;;;;;5047894;28;20229;-69
2022/11/21 02:40:35;;;;;;;0.40;0.40;;;13.80;75.60;;;;;;5053836;28;20288;-64
2022/11/21 02:43:29;;;;;;;0.40;0.40;;;13.80;75.90;;;;;;5052821;28;20604;-64
2022/11/21 02:46:17;;;;;;;0.40;0.40;;;13.70;76.00;;;;;;5054092;28;20221;-67
2022/11/21 02:49:07;;;;;;;0.40;0.40;;;13.80;76.30;;;;;;5052935;28;20682;-67
2022/11/21 02:51:55;;;;;;;0.40;0.40;;;13.50;76.10;;;;;;5053931;28;20283;-67
2022/11/21 02:54:43;;;;;;;0.40;0.40;;;13.50;76.00;;;;;;5052028;28;20208;-67
2022/11/21 02:57:32;;;;;;;0.53;0.53;;;13.40;76.60;;;;;;5053619;28;20233;-65
2022/11/21 03:00:21;;;;;;;16.43;4.43;;;13.40;76.30;;;;;;5052097;28;20700;-65
2022/11/21 03:03:10;;;;;;;0.40;0.40;;;13.30;76.60;;;;;;5053088;28;20224;-68
2022/11/21 03:05:58;;;;;;;0.50;0.50;;;13.20;76.60;;;;;;5052818;28;20225;-68
2022/11/21 03:08:46;;;;;;;0.40;0.40;;;13.20;77.10;;;;;;5052807;28;20428;-67
2022/11/21 03:11:34;;;;;;;0.40;0.40;;;13.30;76.90;;;;;;5051520;28;20586;-69
2022/11/21 03:14:22;;;;;;;1.03;1.03;;;13.30;77.30;;;;;;5054002;28;20446;-69
2022/11/21 03:17:11;;;;;;;0.40;0.40;;;13.10;77.10;;;;;;5060091;28;20228;-67
2022/11/21 03:19:59;;;;;;;1.70;1.70;;;13.10;77.10;;;;;;5060962;28;20197;-66
2022/11/21 03:22:47;;;;;;;0.40;0.40;;;13.20;77.60;;;;;;5061454;28;20285;-68
2022/11/21 03:25:35;;;;;;;0.40;0.40;;;13.10;77.10;;;;;;5062653;28;20225;-65
2022/11/21 03:28:23;;;;;;;0.47;0.47;;;13.20;78.40;;;;;;5063406;28;20214;-65
2022/11/21 03:31:11;;;;;;;0.60;0.60;;;13.30;78.30;;;;;;5062548;28;20553;-65
2022/11/21 03:34:00;;;;;;;0.40;0.40;;;13.30;78.20;;;;;;5063191;28;20204;-65
2022/11/21 03:36:48;;;;;;;0.47;0.47;;;13.30;77.90;;;;;;5063217;28;20297;-67
2022/11/21 03:39:36;;;;;;;0.40;0.40;;;13.50;77.80;;;;;;5058183;28;20211;-68
2022/11/21 03:42:24;;;;;;;0.90;0.90;;;13.90;78.00;;;;;;5056785;28;20198;-67
2022/11/21 03:45:12;;;;;;;0.40;0.40;;;13.60;77.40;;;;;;5054464;28;20201;-68
2022/11/21 03:48:01;;;;;;;0.90;0.90;;;13.70;77.50;;;;;;5054366;28;20304;-66
2022/11/21 03:50:50;;;;;;;0.40;0.40;;;13.60;77.20;;;;;;5053419;28;20197;-69
2022/11/21 03:53:38;;;;;;;1.00;1.00;;;13.60;76.50;;;;;;5051841;28;20288;-69
2022/11/21 03:56:26;;;;;;;0.80;0.80;;;13.60;76.40;;;;;;5051784;28;20200;-67
2022/11/21 03:59:14;;;;;;;0.40;0.40;;;13.80;77.00;;;;;;5052425;28;20197;-71
2022/11/21 04:02:02;;;;;;;0.40;0.40;;;13.70;76.90;;;;;;5052449;28;20205;-68
2022/11/21 04:04:50;;;;;;;0.40;0.40;;;13.60;76.50;;;;;;5052832;28;20209;-67
2022/11/21 04:07:40;;;;;;;0.40;0.40;;;13.50;76.50;;;;;;5051907;28;20724;-68
2022/11/21 04:10:28;;;;;;;0.40;0.40;;;13.50;76.40;;;;;;5051444;28;20670;-66
2022/11/21 04:13:16;;;;;;;0.40;0.40;;;13.50;76.10;;;;;;5051809;28;20205;-69
2022/11/21 04:16:04;;;;;;;0.50;0.50;;;13.50;76.00;;;;;;5052008;28;20189;-67
2022/11/21 04:18:52;;;;;;;0.40;0.40;;;13.40;76.70;;;;;;5051805;28;20450;-69
2022/11/21 04:21:41;;;;;;;0.40;0.40;;;13.50;76.40;;;;;;5051732;28;20201;-65
2022/11/21 04:24:30;;;;;;;0.40;0.40;;;13.40;76.50;;;;;;5055797;28;20208;-65
2022/11/21 04:27:18;;;;;;;0.40;0.40;;;13.30;77.10;;;;;;5055858;28;20263;-66
2022/11/21 04:30:07;;;;;;;0.40;0.40;;;13.30;77.00;;;;;;5055595;28;20197;-69
2022/11/21 04:32:56;;;;;;;0.70;0.70;;;13.20;77.40;;;;;;5056497;28;20207;-67
2022/11/21 04:35:44;;;;;;;0.50;0.50;;;13.20;77.20;;;;;;5055627;28;20193;-67
2022/11/21 04:38:32;;;;;;;0.40;0.40;;;13.10;77.50;;;;;;5055596;28;20224;-70
2022/11/21 04:41:22;;;;;;;0.40;0.40;;;13.00;77.50;;;;;;5061766;28;20511;-67
2022/11/21 04:44:10;;;;;;;3.53;3.23;;;13.10;77.60;;;;;;5062991;28;20232;-69
2022/11/21 04:46:58;;;;;;;0.40;0.40;;;13.10;78.50;;;;;;5087595;22;20456;-63
2022/11/21 04:49:52;;;;;;;0.40;0.40;;;13.30;78.80;;;;;;5075287;28;20201;-63
2022/11/21 04:52:40;;;;;;;0.73;0.73;;;13.40;78.90;;;;;;5075287;28;20426;-63
2022/11/21 04:55:31;;;;;;;0.50;0.50;;;13.30;78.50;;;;;;5075375;28;20574;-63
2022/11/21 04:58:20;;;;;;;0.40;0.40;;;13.50;78.10;;;;;;5074843;28;20829;-63
2022/11/21 05:01:08;;;;;;;0.70;0.70;;;13.70;78.10;;;;;;5075802;28;20216;-63
2022/11/21 05:03:57;;;;;;;0.40;0.40;;;13.50;77.40;;;;;;5075836;28;20201;-63
2022/11/21 05:06:45;;;;;;;0.63;0.63;;;14.00;76.70;;;;;;5075542;28;20704;-63
2022/11/21 05:09:32;;;;;;;0.40;0.40;;;14.00;77.30;;;;;;5075437;28;20207;-63
2022/11/21 05:15:27;;;;;;;2.15;1.95;;;14.10;76.80;;;;;;5075173;28;20583;-64
2022/11/21 05:18:15;;;;;;;0.80;0.80;;;14.10;76.60;;;;;;5075744;28;20215;-63
2022/11/21 05:21:04;;;;;;;0.40;0.40;;;14.20;76.30;;;;;;5074372;28;20203;-63
2022/11/21 05:23:52;;;;;;;0.40;0.40;;;14.20;75.90;;;;;;5075679;28;20201;-63
2022/11/21 05:26:39;;;;;;;0.40;0.40;;;14.10;74.70;;;;;;5074446;28;20258;-63
2022/11/21 05:29:27;;;;;;;0.40;0.40;;;14.10;75.10;;;;;;5074689;28;20207;-63
2022/11/21 05:32:17;;;;;;;0.40;0.40;;;14.00;75.30;;;;;;5074218;28;20200;-63
2022/11/21 05:35:06;;;;;;;0.40;0.40;;;14.00;75.70;;;;;;5073404;28;20200;-64
2022/11/21 05:37:57;;;;;;;0.40;0.40;;;13.90;75.70;;;;;;5073935;28;20243;-62
2022/11/21 05:40:45;;;;;;;0.40;0.40;;;13.80;75.70;;;;;;5075077;28;20207;-63
2022/11/21 05:43:45;;;;;;;0.40;0.40;;;13.80;76.00;;;;;;5074013;28;20233;-63
2022/11/21 05:46:33;;;;;;;0.40;0.40;;;13.70;75.70;;;;;;5075237;28;20594;-63
2022/11/21 05:49:22;;;;;;;0.40;0.40;;;13.60;75.90;;;;;;5074592;28;20200;-64
2022/11/21 05:52:10;;;;;;;0.40;0.40;;;13.70;76.00;;;;;;5074175;28;20193;-63
2022/11/21 05:54:58;;;;;;;0.40;0.40;;;13.50;76.10;;;;;;5075178;28;20200;-63
2022/11/21 05:57:46;;;;;;;0.40;0.40;;;13.40;75.70;;;;;;5073659;28;20220;-63
2022/11/21 06:00:34;;;;;;;0.40;0.40;;;13.40;76.20;;;;;;5073688;28;20669;-63
2022/11/21 06:03:27;;;;;;;0.83;0.83;;;13.40;76.20;;;;;;5075042;28;20196;-63
2022/11/21 06:06:17;;;;;;;0.40;0.40;;;13.30;77.00;;;;;;5075055;28;20204;-63
2022/11/21 06:09:12;;;;;;;0.40;0.40;;;13.30;76.80;;;;;;5073911;28;20711;-65
2022/11/21 06:12:00;;;;;;;1.37;1.37;;;13.10;76.50;;;;;;5073785;28;20207;-63
2022/11/21 06:14:48;;;;;;;1.13;1.13;;;13.10;76.90;;;;;;5075265;28;20283;-64
2022/11/21 06:17:35;;;;;;;0.40;0.40;;;13.10;76.90;;;;;;5074195;28;20219;-63
2022/11/21 06:20:23;;;;;;;0.40;0.40;;;13.10;76.20;;;;;;5074317;28;20574;-63
2022/11/21 06:23:13;;;;;;;0.40;0.40;;;12.90;76.40;;;;;;5074943;28;20286;-62
2022/11/21 06:26:03;;;;;;;0.40;0.40;;;13.10;77.20;;;;;;5074210;28;20197;-63
2022/11/21 06:28:51;;;;;;;0.40;0.40;;;13.10;77.50;;;;;;5073642;28;20223;-63
2022/11/21 06:31:39;;;;;;;0.40;0.40;;;13.10;77.10;;;;;;5073843;28;20205;-63
2022/11/21 06:34:27;;;;;;;0.40;0.40;;;13.10;78.00;;;;;;5073551;28;20197;-63
2022/11/21 06:37:15;;;;;;;0.40;0.40;;;13.10;77.70;;;;;;5070174;28;20708;-63
2022/11/21 06:40:06;;;;;;;0.40;0.40;;;13.10;77.60;;;;;;5072609;28;20207;-63
2022/11/21 06:42:54;;;;;;;0.40;0.40;;;13.10;78.70;;;;;;5076288;28;20218;-63
2022/11/21 06:45:42;;;;;;;2.55;2.25;;;13.10;78.50;;;;;;5073369;28;20200;-64
2022/11/21 06:48:30;;;;;;;0.40;0.40;;;13.30;78.30;;;;;;5103253;28;20723;-63
2022/11/21 06:51:20;;;;;;;0.40;0.40;;;13.30;78.20;;;;;;5113471;28;20248;-63
2022/11/21 06:54:08;;;;;;;0.40;0.40;;;13.50;78.00;;;;;;5114698;28;20206;-64
2022/11/21 06:57:04;;;;;;;0.40;0.40;;;13.50;77.80;;;;;;5106234;28;20215;-64
2022/11/21 06:59:52;;;;;;;0.40;0.40;;;13.30;77.00;;;;;;5112462;28;20200;-63
2022/11/21 07:02:40;;;;;;;0.40;0.40;;;13.20;76.90;;;;;;5095959;28;20206;-63
2022/11/21 07:05:28;;;;;;;0.40;0.40;;;13.60;77.10;;;;;;5093180;28;20203;-63
2022/11/21 07:08:16;;;;;;;0.40;0.40;;;13.60;76.40;;;;;;5098984;28;20226;-63
2022/11/21 07:11:06;;;;;;;0.40;0.40;;;13.50;76.90;;;;;;5112111;28;20207;-63
2022/11/21 07:14:13;;;;;;;0.83;0.83;;;13.50;76.30;;;;;;5113939;28;20226;-63
2022/11/21 07:17:01;;;;;;;0.40;0.40;;;13.40;76.40;;;;;;5111857;28;20215;-63
2022/11/21 07:19:49;;;;;;;0.40;0.40;;;13.40;76.50;;;;;;5112307;28;20233;-63
2022/11/21 07:22:37;;;;;;;0.40;0.40;;;13.40;76.20;;;;;;5111988;28;20206;-63
2022/11/21 07:25:25;;;;;;;0.80;0.80;;;13.50;76.40;;;;;;5102496;28;20204;-62
2022/11/21 07:28:13;;;;;;;0.40;0.40;;;13.30;76.60;;;;;;5110649;28;20226;-63
2022/11/21 07:31:03;;;;;;;0.40;0.40;;;13.30;76.60;;;;;;5097496;28;20572;-62
2022/11/21 07:33:59;;;;;;;0.40;0.40;;;13.30;76.80;;;;;;5078804;28;20192;-63
2022/11/21 07:36:47;;;;;;;4.03;2.00;;;13.20;77.10;;;;;;5091425;28;20207;-63
2022/11/21 07:39:35;;;;;;;0.40;0.40;;;13.20;77.00;;;;;;5093019;28;20577;-63
2022/11/21 07:42:23;;;;;;;0.40;0.40;;;13.20;77.10;;;;;;5104025;28;20196;-63
2022/11/21 07:45:13;;;;;;;0.40;0.40;;;13.30;77.20;;;;;;5091443;28;21014;-63
2022/11/21 07:48:04;;;;;;;0.40;0.40;;;13.10;77.00;;;;;;5072439;28;20235;-64
2022/11/21 07:50:53;;;;;;;0.70;0.70;;;13.10;77.80;;;;;;5084120;28;20207;-62
2022/11/21 07:53:41;;;;;;;0.40;0.40;;;13.10;77.90;;;;;;5091936;28;20198;-63
2022/11/21 07:56:29;;;;;;;0.50;0.50;;;13.30;78.00;;;;;;5091207;28;20192;-63
2022/11/21 07:59:18;;;;;;;0.40;0.40;;;13.20;77.60;;;;;;5091072;28;20692;-63
2022/11/21 08:02:06;;;;;;;1.33;1.27;;;13.20;77.20;;;;;;5078335;28;20199;-62
2022/11/21 08:04:56;;;;;;;0.50;0.50;;;13.00;77.80;;;;;;5091895;28;20422;-62
2022/11/21 08:07:44;;;;;;;0.40;0.40;;;13.30;78.90;;;;;;5092031;28;20676;-63
2022/11/21 08:10:32;;;;;;;0.40;0.40;;;13.00;77.60;;;;;;5086541;28;20425;-63
2022/11/21 08:13:20;;;;;;;0.40;0.40;;;13.00;78.40;;;;;;5095411;28;20210;-64
2022/11/21 08:16:08;;;;;;;0.40;0.40;;;13.00;78.00;;;;;;5095592;28;20426;-64
2022/11/21 08:18:56;;;;;;;0.40;0.40;;;13.20;77.90;;;;;;5090722;28;20688;-63
2022/11/21 08:21:45;;;;;;;1.87;1.77;;;13.10;77.30;;;;;;5089377;28;20277;-63
2022/11/21 08:24:33;;;;;;;0.40;0.40;;;13.10;77.20;;;;;;5092769;28;20326;-64
2022/11/21 08:27:23;;;;;;;0.40;0.40;;;13.10;77.10;;;;;;5092566;28;20222;-63
2022/11/21 08:30:12;;;;;;;0.40;0.40;;;13.00;77.00;;;;;;5092322;28;20434;-63
2022/11/21 08:33:01;;;;;;;0.40;0.40;;;13.00;76.70;;;;;;5096786;28;20427;-63
2022/11/21 08:35:49;;;;;;;0.40;0.40;;;13.00;76.90;;;;;;5076929;28;20229;-64
2022/11/21 08:38:38;;;;;;;0.47;0.47;;;13.00;77.70;;;;;;5099603;28;20219;-64
2022/11/21 08:44:34;;;;;;;0.40;0.40;;;13.10;77.50;;;;;;5112104;28;20210;-64
2022/11/21 08:47:22;;;;;;;0.40;0.40;;;12.50;76.60;;;;;;5111727;28;20228;-65
2022/11/21 08:50:10;;;;;;;10.60;3.37;;;12.90;77.40;;;;;;5103701;28;20203;-63
2022/11/21 08:53:01;;;;;;;0.40;0.40;;;12.90;76.90;;;;;;5094518;28;20200;-63
2022/11/21 08:55:50;;;;;;;0.40;0.40;;;12.90;77.10;;;;;;5090473;28;20229;-63
2022/11/21 08:58:38;;;;;;;0.40;0.40;;;12.90;77.60;;;;;;5087940;28;20474;-63
2022/11/21 09:01:26;;;;;;;1.23;0.90;;;12.80;77.30;;;;;;5096058;28;20218;-63
2022/11/21 09:04:14;;;;;;;0.40;0.40;;;12.80;77.20;;;;;;5104584;28;20204;-63
2022/11/21 09:07:03;;;;;;;0.40;0.40;;;12.80;77.50;;;;;;5091406;28;20224;-63
2022/11/21 09:09:51;;;;;;;0.50;0.50;;;12.80;77.40;;;;;;5114653;28;20457;-64
2022/11/21 09:12:40;;;;;;;0.40;0.40;;;12.80;78.00;;;;;;5107971;28;20203;-63
2022/11/21 09:18:34;;;;;;;0.40;0.40;;;12.80;77.80;;;;;;5074050;28;20215;-63
2022/11/21 09:21:22;;;;;;;0.83;0.83;;;12.80;78.30;;;;;;5115659;28;20425;-63
2022/11/21 09:24:10;;;;;;;0.80;0.80;;;12.80;78.40;;;;;;5116818;28;20209;-63
2022/11/21 09:26:59;;;;;;;0.40;0.40;;;12.90;78.40;;;;;;5110232;28;20276;-63
2022/11/21 09:29:48;;;;;;;0.40;0.40;;;12.90;78.20;;;;;;5107084;28;20462;-62
2022/11/21 09:32:41;;;;;;;0.40;0.40;;;13.00;78.10;;;;;;5109003;28;20580;-63
2022/11/21 09:35:29;;;;;;;0.40;0.40;;;13.00;77.20;;;;;;5088289;28;20254;-63
2022/11/21 09:38:17;;;;;;;0.40;0.40;;;13.00;77.80;;;;;;5106133;28;20468;-63
2022/11/21 09:45:01;;;;;;;0.47;0.47;;;13.00;77.80;;;;;;5076128;28;20198;-63
2022/11/21 09:47:51;;;;;;;0.40;0.40;;;13.00;77.60;;;;;;5077371;28;20669;-63
2022/11/21 09:50:45;;;;;;;0.40;0.40;;;13.00;76.60;;;;;;5092051;28;20200;-63
2022/11/21 09:53:52;;;;;;;0.40;0.40;;;13.00;77.80;;;;;;5075718;28;20689;-64
2022/11/21 09:56:42;;;;;;;0.40;0.40;;;13.00;77.80;;;;;;5074689;28;20703;-63
2022/11/21 09:59:34;;;;;;;0.40;0.40;;;13.00;76.80;;;;;;5100719;28;20414;-63
2022/11/21 10:02:25;;;;;;;0.40;0.40;;;13.00;77.30;;;;;;5074069;28;20197;-62
2022/11/21 10:05:14;;;;;;;0.40;0.40;;;12.90;77.40;;;;;;5075509;28;20218;-64
2022/11/21 10:08:08;;;;;;;0.40;0.40;;;12.90;77.60;;;;;;5094814;28;20231;-63
2022/11/21 10:11:00;;;;;;;0.40;0.40;;;12.90;77.30;;;;;;5113850;28;20421;-63
2022/11/21 10:14:12;;;;;;;0.40;0.40;;;12.90;78.20;;;;;;5109750;28;20196;-63
2022/11/21 10:17:16;;;;;;;0.40;0.40;;;12.90;78.20;;;;;;5084274;28;20227;-63
2022/11/21 10:20:21;;;;;;;0.40;0.40;;;12.80;78.00;;;;;;5074856;28;20197;-63
2022/11/21 10:23:34;;;;;;;0.40;0.40;;;12.80;78.20;;;;;;5074031;28;20200;-63
2022/11/21 10:26:31;;;;;;;0.40;0.40;;;12.80;78.10;;;;;;5082871;28;20679;-63
2022/11/21 10:29:24;;;;;;;0.40;0.40;;;12.70;78.20;;;;;;5094381;28;20227;-63
2022/11/21 10:32:20;;;;;;;0.40;0.40;;;12.80;78.50;;;;;;5074327;28;20275;-63
2022/11/21 10:35:16;;;;;;;0.40;0.40;;;12.80;79.50;;;;;;5093952;28;20222;-63
2022/11/21 10:38:17;;;;;;;0.40;0.40;;;12.80;79.60;;;;;;5093679;28;20216;-63
2022/11/21 10:41:15;;;;;;;0.43;0.43;;;13.00;79.60;;;;;;5094271;28;20202;-62
2022/11/21 10:47:26;;;;;;;0.40;0.40;;;13.30;78.90;;;;;;5094476;28;20212;-64
2022/11/21 10:50:32;;;;;;;0.40;0.40;;;13.40;78.80;;;;;;5094112;28;20970;-64
2022/11/21 10:56:28;;;;;;;0.70;0.70;;;13.50;78.00;;;;;;5108706;28;20258;-62
2022/11/21 10:59:23;;;;;;;0.40;0.40;;;13.60;77.40;;;;;;5113192;28;20191;-65
2022/11/21 11:02:24;;;;;;;0.40;0.40;;;13.60;77.20;;;;;;5114031;28;20208;-63
2022/11/21 11:05:20;;;;;;;0.40;0.40;;;13.50;76.80;;;;;;5114121;28;20824;-62
2022/11/21 11:08:11;;;;;;;0.47;0.47;;;13.60;77.60;;;;;;5114961;28;20219;-62
2022/11/21 11:11:06;;;;;;;0.40;0.40;;;13.60;77.20;;;;;;5114282;28;20569;-63
2022/11/21 11:14:00;;;;;;;1.80;1.70;;;13.50;77.00;;;;;;5114475;28;20332;-63
2022/11/21 11:16:48;;;;;;;0.40;0.40;;;13.50;77.30;;;;;;5115777;28;20203;-63
2022/11/21 11:19:36;;;;;;;0.40;0.40;;;13.50;77.80;;;;;;5114294;28;20587;-63
2022/11/21 11:22:28;;;;;;;0.50;0.50;;;13.70;77.40;;;;;;5118173;28;20207;-63
2022/11/21 11:25:18;;;;;;;0.40;0.40;;;13.50;77.50;;;;;;5118323;28;20206;-63
2022/11/21 11:28:07;;;;;;;0.40;0.40;;;13.50;76.90;;;;;;5119546;28;20223;-63
2022/11/21 11:30:56;;;;;;;0.40;0.40;;;13.30;77.60;;;;;;5124594;28;20215;-65
2022/11/21 11:33:55;;;;;;;0.40;0.40;;;13.40;77.80;;;;;;5127961;28;20226;-64
2022/11/21 11:37:02;;;;;;;0.40;0.40;;;13.40;86.10;;;;;;5130076;28;20202;-64
2022/11/21 11:40:01;;;;;;;0.40;0.40;;;13.40;77.80;;;;;;5128790;28;20194;-63
2022/11/21 11:52:52;;;;;;;0.40;0.40;;;13.00;77.20;;;;;;5129520;28;20195;-66
2022/11/21 11:55:43;;;;;;;0.50;0.50;;;12.80;78.00;;;;;;5129041;28;20636;-63
2022/11/21 11:58:41;;;;;;;0.40;0.40;;;13.00;78.30;;;;;;5129806;28;20225;-63
2022/11/21 12:01:37;;;;;;;0.40;0.40;;;13.00;78.40;;;;;;5130093;28;20203;-65
2022/11/21 12:04:28;;;;;;;0.40;0.40;;;12.90;78.20;;;;;;5115569;28;20501;-64
2022/11/21 12:07:21;;;;;;;0.50;0.50;;;12.90;78.60;;;;;;5120336;28;20211;-65
2022/11/21 12:10:34;;;;;;;0.40;0.40;;;13.10;80.00;;;;;;5129272;28;20219;-65
2022/11/21 12:13:22;;;;;;;0.40;0.40;;;13.40;79.80;;;;;;5089569;28;20188;-64
2022/11/21 12:16:14;;;;;;;0.40;0.40;;;13.70;79.40;;;;;;5100789;28;20211;-67
2022/11/21 12:19:10;;;;;;;0.40;0.40;;;13.90;79.00;;;;;;5107689;28;20255;-63
2022/11/21 12:21:58;;;;;;;0.40;0.40;;;14.10;78.70;;;;;;5108896;28;20258;-63
2022/11/21 12:24:46;;;;;;;0.40;0.40;;;14.20;78.20;;;;;;5112229;28;20196;-63
2022/11/21 12:27:35;;;;;;;0.40;0.40;;;14.30;77.90;;;;;;5113977;28;20244;-63
2022/11/21 12:30:46;;;;;;;0.40;0.40;;;14.40;77.70;;;;;;5112473;28;20222;-65
2022/11/21 12:33:47;;;;;;;0.40;0.40;;;14.50;77.40;;;;;;5114867;28;20271;-67
2022/11/21 12:36:44;;;;;;;0.40;0.40;;;14.50;77.20;;;;;;5112711;28;20195;-64
2022/11/21 12:39:53;;;;;;;0.40;0.40;;;14.50;76.90;;;;;;5114532;28;20271;-65
2022/11/21 12:42:49;;;;;;;1.23;0.88;;;14.60;76.60;;;;;;5114127;28;20186;-67
2022/11/21 12:45:41;;;;;;;0.40;0.40;;;14.50;75.90;;;;;;5116431;28;20234;-64
2022/11/21 12:55:21;;;;;;;0.40;0.40;;;14.40;76.40;;;;;;5077065;28;20203;-64
2022/11/21 12:58:26;;;;;;;1.20;1.20;;;14.30;76.00;;;;;;5077718;28;20701;-63
2022/11/21 13:01:23;;;;;;;0.40;0.40;;;14.20;76.40;;;;;;5106910;28;20191;-63
2022/11/21 13:04:16;;;;;;;0.40;0.40;;;14.20;76.90;;;;;;5116512;28;20199;-63
2022/11/21 13:07:06;;;;;;;0.40;0.40;;;14.10;76.50;;;;;;5104880;28;20307;-64
2022/11/21 13:09:56;;;;;;;0.40;0.40;;;14.10;77.40;;;;;;5096568;28;20680;-62
2022/11/21 13:12:50;;;;;;;0.40;0.40;;;14.00;76.30;;;;;;5109740;28;20200;-63
2022/11/21 13:15:43;;;;;;;0.40;0.40;;;13.90;76.80;;;;;;5117325;28;20191;-65
2022/11/21 13:18:36;;;;;;;0.40;0.40;;;13.80;76.80;;;;;;5117952;28;20311;-63
2022/11/21 13:21:41;;;;;;;0.40;0.40;;;13.80;76.60;;;;;;5116978;28;20566;-63
2022/11/21 13:24:56;;;;;;;0.40;0.40;;;13.70;76.40;;;;;;5101696;28;20208;-63
2022/11/21 13:27:44;;;;;;;0.40;0.40;;;13.60;76.90;;;;;;5096606;28;20346;-63
2022/11/21 13:30:32;;;;;;;0.40;0.40;;;13.60;77.90;;;;;;5095465;28;20223;-63
2022/11/21 13:33:47;;;;;;;0.40;0.40;;;13.50;77.50;;;;;;5108678;28;20199;-63
2022/11/21 13:36:45;;;;;;;0.40;0.40;;;13.50;76.90;;;;;;5116548;28;20210;-63
2022/11/21 13:39:37;;;;;;;0.40;0.40;;;13.50;77.60;;;;;;5116192;28;20213;-62
2022/11/21 13:45:55;;;;;;;0.40;0.40;;;13.40;77.30;;;;;;5096282;28;20196;-63
2022/11/21 13:49:06;;;;;;;0.40;0.40;;;13.40;78.10;;;;;;5095269;28;20315;-63
2022/11/21 13:51:55;;;;;;;0.40;0.40;;;13.40;78.20;;;;;;5095985;28;20227;-65
2022/11/21 13:55:16;;;;;;;0.40;0.40;;;13.40;78.50;;;;;;5095177;28;20204;-63
2022/11/21 13:58:16;;;;;;;0.40;0.40;;;13.30;78.20;;;;;;5094865;28;20231;-65
2022/11/21 14:01:22;;;;;;;0.40;0.40;;;13.30;78.30;;;;;;5108780;28;20286;-63
2022/11/21 14:04:48;;;;;;;0.40;0.40;;;13.20;78.90;;;;;;5114836;28;20577;-63
2022/11/21 14:07:39;;;;;;;0.40;0.40;;;13.20;78.50;;;;;;5094448;28;20219;-64
2022/11/21 14:10:33;;;;;;;0.40;0.40;;;13.20;79.20;;;;;;5094818;28;20219;-63
2022/11/21 14:13:27;;;;;;;0.40;0.40;;;13.30;79.40;;;;;;5094126;28;20729;-63
2022/11/21 14:16:26;;;;;;;0.40;0.40;;;13.40;79.30;;;;;;5094930;28;20410;-63
2022/11/21 14:19:19;;;;;;;0.40;0.40;;;13.50;79.00;;;;;;5093901;28;20200;-63
2022/11/21 14:22:15;;;;;;;0.40;0.40;;;13.60;78.80;;;;;;5094305;28;20775;-63
2022/11/21 14:25:09;;;;;;;0.70;0.70;;;13.70;78.70;;;;;;5113891;28;20210;-63
2022/11/21 14:27:58;;;;;;;0.40;0.40;;;13.70;78.40;;;;;;5103228;28;20340;-63
2022/11/21 14:30:46;;;;;;;0.40;0.40;;;13.80;78.00;;;;;;5094878;28;20652;-63
2022/11/21 14:33:36;;;;;;;0.40;0.40;;;13.80;78.10;;;;;;5085554;28;20200;-64
2022/11/21 14:36:28;;;;;;;0.40;0.40;;;13.90;78.10;;;;;;5096147;28;20297;-65
2022/11/21 14:39:17;;;;;;;0.40;0.40;;;13.80;77.20;;;;;;5105263;28;20572;-62
2022/11/21 14:42:36;;;;;;;0.40;0.40;;;13.80;76.80;;;;;;5111916;28;20191;-64
2022/11/21 14:45:24;;;;;;;0.50;0.50;;;13.80;77.80;;;;;;5094416;28;20192;-63
2022/11/21 14:48:12;;;;;;;0.40;0.40;;;13.70;77.40;;;;;;5093711;28;20223;-63
2022/11/21 14:51:01;;;;;;;0.50;0.50;;;13.70;77.10;;;;;;5093480;28;20246;-63
2022/11/21 14:53:51;;;;;;;0.40;0.40;;;13.80;77.20;;;;;;5094093;28;20463;-63
2022/11/21 14:56:41;;;;;;;0.60;0.60;;;13.70;77.60;;;;;;5093967;28;20200;-63
2022/11/21 14:59:33;;;;;;;0.40;0.40;;;13.60;76.70;;;;;;5094411;28;20200;-62
2022/11/21 15:02:22;;;;;;;0.83;0.83;;;13.60;77.00;;;;;;5094066;28;20196;-63
2022/11/21 15:05:15;;;;;;;0.40;0.40;;;13.60;77.20;;;;;;5093378;28;20756;-63
2022/11/21 15:08:23;;;;;;;0.93;0.93;;;13.60;77.50;;;;;;5093446;28;20235;-63
2022/11/21 15:11:38;;;;;;;0.40;0.40;;;13.50;77.30;;;;;;5094486;28;20231;-63
2022/11/21 15:14:33;;;;;;;0.40;0.40;;;13.50;77.70;;;;;;5093879;28;20192;-63
2022/11/21 15:17:23;;;;;;;0.40;0.40;;;13.40;77.70;;;;;;5092951;28;20224;-63
2022/11/21 15:20:19;;;;;;;0.40;0.40;;;13.40;77.60;;;;;;5093710;28;20708;-63
2022/11/21 15:23:25;;;;;;;2.50;2.40;;;13.30;77.70;;;;;;5093635;28;20582;-63
2022/11/21 15:26:28;;;;;;;0.40;0.40;;;13.30;78.10;;;;;;5111032;28;20219;-65
2022/11/21 15:29:20;;;;;;;0.40;0.40;;;13.20;77.80;;;;;;5112786;28;20255;-64
2022/11/21 15:32:11;;;;;;;0.40;0.40;;;13.10;77.50;;;;;;5113372;28;20220;-64
2022/11/21 15:35:28;;;;;;;0.40;0.40;;;13.10;77.80;;;;;;5112918;28;20418;-64